Time;durP1;ratioP1;P1;durP2;ratioP2;P2;SDS_P1;SDS_P2;PMS_P1;PMS_P2;Temp;Humidity;BMP_temperature;BMP_pressure;BME280_temperature;BME280_humidity;BME280_pressure;Samples;Min_cycle;Max_cycle;Signal;HPM_P1;HPM_P2
2023/11/02 00:01:17;;;;;;;2.33;0.55;;;;;;;18.41;48.13;98943.88;5033711;28;20397;-60
2023/11/02 00:03:43;;;;;;;2.25;0.30;;;;;;;18.42;47.96;98923.84;5017282;28;20120;-60
2023/11/02 00:06:25;;;;;;;1.45;0.40;;;;;;;18.43;47.72;98920.91;5033015;28;20116;-60
2023/11/02 00:09:12;;;;;;;1.20;0.30;;;;;;;18.41;48.22;98901.34;5033925;28;20523;-60
2023/11/02 00:11:54;;;;;;;1.23;0.85;;;;;;;18.39;48.56;98889.06;5034833;28;20030;-60
2023/11/02 00:14:20;;;;;;;4.93;0.88;;;;;;;18.38;47.55;98882.81;5035184;28;20125;-60
2023/11/02 00:16:47;;;;;;;2.25;0.50;;;;;;;18.36;47.98;98871.38;5033541;28;20112;-60
2023/11/02 00:19:23;;;;;;;3.70;0.30;;;;;;;18.39;47.88;98859.25;5033565;28;20033;-60
2023/11/02 00:21:49;;;;;;;1.92;0.30;;;;;;;18.39;48.21;98860.06;5034837;28;20116;-60
2023/11/02 00:24:14;;;;;;;1.10;0.50;;;;;;;18.36;47.50;98848.84;5016995;28;20404;-60
2023/11/02 00:26:39;;;;;;;2.50;0.60;;;;;;;18.38;48.32;98846.72;5033460;28;20378;-60
2023/11/02 00:29:05;;;;;;;1.70;0.28;;;;;;;18.36;48.00;98843.44;5016811;28;20037;-60
2023/11/02 00:31:30;;;;;;;3.95;0.38;;;;;;;18.38;47.87;98838.59;5033254;28;20034;-60
2023/11/02 00:33:55;;;;;;;3.47;0.98;;;;;;;18.38;48.06;98834.00;5032753;28;20037;-60
2023/11/02 00:36:22;;;;;;;2.50;0.50;;;;;;;18.38;47.93;98825.88;5033541;28;20034;-60
2023/11/02 00:38:47;;;;;;;1.63;0.30;;;;;;;18.42;48.37;98820.84;5034464;28;20057;-60
2023/11/02 00:41:12;;;;;;;4.13;0.40;;;;;;;18.40;48.04;98817.50;5033140;28;20068;-60
2023/11/02 00:43:38;;;;;;;0.73;0.38;;;;;;;18.43;48.14;98795.34;5033007;28;20053;-60
2023/11/02 00:46:03;;;;;;;1.50;0.30;;;;;;;18.45;47.46;98794.06;5033111;28;20061;-60
2023/11/02 00:48:33;;;;;;;1.25;0.52;;;;;;;18.48;47.76;98787.41;5034020;28;20061;-60
2023/11/02 00:51:04;;;;;;;1.38;0.20;;;;;;;18.49;47.89;98778.19;5032980;28;20030;-60
2023/11/02 00:53:29;;;;;;;3.58;0.32;;;;;;;18.49;47.74;98775.50;5034566;28;20040;-61
2023/11/02 00:55:55;;;;;;;5.78;0.60;;;;;;;18.51;47.92;98778.78;5033181;28;20120;-60
2023/11/02 00:58:30;;;;;;;3.08;0.75;;;;;;;18.52;48.17;98761.47;5033185;28;20049;-60
2023/11/02 01:00:55;;;;;;;2.10;0.35;;;;;;;18.53;47.82;98766.69;5032367;28;20067;-60
2023/11/02 01:03:21;;;;;;;2.97;1.38;;;;;;;18.55;47.38;98750.16;5033697;28;20056;-60
2023/11/02 01:05:46;;;;;;;2.33;0.30;;;;;;;18.55;48.19;98739.31;5032521;28;20032;-60
2023/11/02 01:08:13;;;;;;;1.58;0.32;;;;;;;18.55;47.98;98736.63;5033755;28;20033;-60
2023/11/02 01:10:39;;;;;;;1.27;0.35;;;;;;;18.56;48.27;98736.38;5034064;28;20083;-60
2023/11/02 01:13:08;;;;;;;1.85;0.50;;;;;;;18.54;47.75;98743.09;5032838;28;20095;-61
2023/11/02 01:15:42;;;;;;;3.83;0.82;;;;;;;18.59;47.77;98740.53;5033630;28;20009;-60
2023/11/02 01:18:12;;;;;;;3.55;0.52;;;;;;;18.59;48.23;98721.53;5033800;28;20036;-60
2023/11/02 01:20:43;;;;;;;4.38;0.30;;;;;;;18.59;48.00;98719.63;5016001;28;20034;-60
2023/11/02 01:23:16;;;;;;;3.30;0.38;;;;;;;18.62;47.98;98718.34;5032337;28;20155;-60
2023/11/02 01:25:46;;;;;;;6.75;0.63;;;;;;;18.64;47.78;98718.97;5016146;28;20030;-61
2023/11/02 01:28:19;;;;;;;4.10;0.32;;;;;;;18.69;47.78;98710.09;5032621;28;20025;-60
2023/11/02 01:31:00;;;;;;;2.38;0.40;;;;;;;18.74;47.89;98696.66;5032834;28;20508;-61
2023/11/02 01:33:37;;;;;;;3.70;0.80;;;;;;;18.76;47.99;98684.53;5033624;28;20103;-60
2023/11/02 01:36:05;;;;;;;2.33;0.40;;;;;;;18.77;47.68;98671.78;5033516;28;20064;-60
2023/11/02 01:38:31;;;;;;;4.50;0.40;;;;;;;18.78;47.99;98659.88;5032209;28;20041;-60
2023/11/02 01:41:10;;;;;;;1.52;0.47;;;;;;;18.78;47.89;98630.88;5033224;28;20033;-60
2023/11/02 01:43:38;;;;;;;1.73;0.40;;;;;;;18.81;47.48;98603.28;5032251;28;20390;-60
2023/11/02 01:46:08;;;;;;;4.32;0.38;;;;;;;18.82;47.64;98588.63;5033174;28;20048;-60
2023/11/02 01:48:35;;;;;;;5.82;0.60;;;;;;;18.84;47.87;98572.16;5015410;28;20037;-60
2023/11/02 01:51:02;;;;;;;4.40;0.80;;;;;;;18.85;47.92;98573.78;5031600;28;20037;-61
2023/11/02 01:53:53;;;;;;;3.55;0.60;;;;;;;18.85;47.51;98571.06;5005865;28;20115;-61
2023/11/02 01:56:22;;;;;;;3.33;0.77;;;;;;;18.81;47.67;98565.31;5031859;28;20026;-60
2023/11/02 01:59:10;;;;;;;2.92;0.20;;;;;;;18.79;47.65;98548.41;5015205;28;20068;-60
2023/11/02 02:01:50;;;;;;;19.52;1.48;;;;;;;18.78;47.65;98529.69;5031088;28;20404;-61
2023/11/02 02:04:41;;;;;;;3.13;0.52;;;;;;;18.78;47.37;98516.97;5032137;28;20500;-61
2023/11/02 02:07:43;;;;;;;5.60;0.75;;;;;;;18.75;47.71;98506.56;5031785;28;20088;-60
2023/11/02 02:10:14;;;;;;;6.35;0.85;;;;;;;18.74;47.62;98502.22;5030541;28;20042;-60
2023/11/02 02:13:01;;;;;;;3.53;0.40;;;;;;;18.76;47.86;98493.84;5032911;28;20037;-60
2023/11/02 02:15:33;;;;;;;3.10;0.50;;;;;;;18.74;47.52;98477.78;5033078;28;20060;-60
2023/11/02 02:18:03;;;;;;;6.85;0.60;;;;;;;18.76;47.99;98464.00;5015523;28;20034;-60
2023/11/02 02:20:32;;;;;;;3.60;0.65;;;;;;;18.75;47.81;98446.91;5033013;28;20030;-60
2023/11/02 02:23:27;;;;;;;5.00;0.77;;;;;;;18.78;47.73;98446.44;5014997;28;20026;-60
2023/11/02 02:26:33;;;;;;;7.25;0.65;;;;;;;18.80;47.87;98422.59;5014684;28;20045;-60
2023/11/02 02:29:08;;;;;;;3.92;0.95;;;;;;;18.78;47.45;98408.44;5032164;28;20042;-61
2023/11/02 02:32:15;;;;;;;6.25;1.15;;;;;;;18.80;47.76;98417.16;5033072;28;20447;-62
2023/11/02 02:34:50;;;;;;;3.83;0.40;;;;;;;18.81;47.38;98409.84;5022561;28;20405;-65
2023/11/02 02:37:26;;;;;;;4.57;0.73;;;;;;;18.81;47.75;98391.69;5017622;28;20102;-63
2023/11/02 02:40:05;;;;;;;3.80;0.60;;;;;;;18.86;47.95;98383.66;5034395;28;20504;-63
2023/11/02 02:42:34;;;;;;;3.92;0.68;;;;;;;18.87;47.76;98341.88;5032621;28;20037;-62
2023/11/02 02:45:04;;;;;;;0.50;0.20;;;;;;;18.90;47.59;98335.97;5014866;28;20034;-62
2023/11/02 02:47:31;;;;;;;2.08;0.50;;;;;;;18.89;47.44;98344.38;5031643;28;20041;-61
2023/11/02 02:49:59;;;;;;;2.72;0.65;;;;;;;18.91;47.29;98348.47;5014907;28;20469;-61
2023/11/02 02:52:28;;;;;;;1.58;0.40;;;;;;;18.90;46.96;98325.13;5031383;28;20030;-61
2023/11/02 02:54:57;;;;;;;3.47;0.75;;;;;;;18.91;47.35;98304.25;5031307;28;20030;-61
2023/11/02 02:57:28;;;;;;;3.15;0.40;;;;;;;18.92;47.18;98312.16;5031501;28;20080;-62
2023/11/02 02:59:55;;;;;;;2.92;0.93;;;;;;;18.89;47.47;98301.78;5031448;28;20030;-61
2023/11/02 03:02:24;;;;;;;4.68;0.50;;;;;;;18.92;47.47;98274.16;5032301;28;20505;-61
2023/11/02 03:04:50;;;;;;;7.38;0.50;;;;;;;18.91;47.14;98249.97;5014705;28;20126;-61
2023/11/02 03:07:16;;;;;;;1.90;0.50;;;;;;;18.89;46.62;98239.38;5031431;28;20033;-61
2023/11/02 03:09:43;;;;;;;3.70;0.47;;;;;;;18.91;46.89;98237.25;5031276;28;20098;-61
2023/11/02 03:12:10;;;;;;;2.63;0.57;;;;;;;18.91;47.09;98229.09;5034302;28;20034;-61
2023/11/02 03:14:38;;;;;;;2.72;0.68;;;;;;;18.95;46.55;98208.56;5036383;28;20036;-61
2023/11/02 03:17:13;;;;;;;1.70;0.55;;;;;;;18.96;46.73;98184.94;5035349;28;20124;-61
2023/11/02 03:19:47;;;;;;;5.13;0.50;;;;;;;18.96;45.97;98174.91;5035201;28;20108;-61
2023/11/02 03:22:15;;;;;;;3.65;0.50;;;;;;;18.94;47.03;98158.06;5035874;28;20042;-60
2023/11/02 03:24:52;;;;;;;6.88;0.57;;;;;;;18.92;46.24;98138.53;5017950;28;20501;-61
2023/11/02 03:27:28;;;;;;;1.77;0.40;;;;;;;18.90;46.42;98140.63;5034495;28;20483;-62
2023/11/02 03:30:04;;;;;;;3.60;0.50;;;;;;;18.92;46.40;98133.09;5034514;28;20077;-61
2023/11/02 03:32:34;;;;;;;2.72;0.90;;;;;;;18.91;45.84;98109.72;5034478;28;20057;-61
2023/11/02 03:35:25;;;;;;;2.03;0.30;;;;;;;18.92;45.53;98100.53;5034085;28;20447;-62
2023/11/02 03:38:05;;;;;;;0.75;0.20;;;;;;;18.91;45.57;98098.88;5034250;28;20038;-61
2023/11/02 03:40:52;;;;;;;3.00;0.55;;;;;;;18.88;45.62;98039.69;5035268;28;20468;-59
2023/11/02 03:43:18;;;;;;;3.50;0.38;;;;;;;18.88;45.94;98015.28;5035403;28;20045;-59
2023/11/02 03:46:04;;;;;;;1.65;0.50;;;;;;;18.85;45.49;98004.94;5034275;28;20524;-59
2023/11/02 03:48:46;;;;;;;1.05;0.40;;;;;;;18.84;45.89;97989.75;5034223;28;20036;-59
2023/11/02 03:51:33;;;;;;;1.80;0.37;;;;;;;18.82;45.86;97959.31;5034190;28;20042;-59
2023/11/02 03:54:08;;;;;;;1.98;0.30;;;;;;;18.79;45.63;97878.47;5034295;28;20267;-59
2023/11/02 03:56:50;;;;;;;4.60;0.60;;;;;;;18.73;45.10;97868.66;5035193;28;20084;-59
2023/11/02 03:59:42;;;;;;;2.97;0.50;;;;;;;18.76;45.50;97927.00;5035176;28;20029;-59
2023/11/02 04:02:21;;;;;;;2.07;0.63;;;;;;;18.76;45.36;97851.84;5022816;28;20559;-59
2023/11/02 04:04:48;;;;;;;1.55;0.52;;;;;;;18.79;45.35;97877.66;5033817;28;20041;-59
2023/11/02 04:07:21;;;;;;;2.15;0.50;;;;;;;18.80;45.47;97847.56;5034020;28;20025;-59
2023/11/02 04:09:54;;;;;;;4.85;0.40;;;;;;;18.81;45.39;97859.25;5035170;28;20512;-59
2023/11/02 04:12:41;;;;;;;2.17;0.40;;;;;;;18.83;45.23;97795.53;5033786;28;20041;-59
2023/11/02 04:15:08;;;;;;;3.55;0.40;;;;;;;18.83;45.20;97802.84;5033916;28;20060;-59
2023/11/02 04:17:34;;;;;;;7.88;0.32;;;;;;;18.86;45.10;97832.16;5033823;28;20025;-59
2023/11/02 04:20:00;;;;;;;2.63;0.40;;;;;;;18.87;44.92;97842.75;5033698;28;20382;-59
2023/11/02 04:22:26;;;;;;;0.65;0.40;;;;;;;18.85;45.10;97812.34;5033212;28;20030;-59
2023/11/02 04:24:51;;;;;;;0.50;0.20;;;;;;;18.89;45.43;97829.78;5034615;28;20052;-59
2023/11/02 04:27:17;;;;;;;1.65;0.22;;;;;;;18.88;45.04;97811.84;5033655;28;20120;-59
2023/11/02 04:29:42;;;;;;;1.55;0.50;;;;;;;18.93;44.72;97809.19;5033274;28;20042;-59
2023/11/02 04:32:07;;;;;;;2.35;0.55;;;;;;;18.96;45.06;97786.13;5016798;28;20466;-59
2023/11/02 04:34:33;;;;;;;0.20;0.20;;;;;;;18.94;44.83;97762.00;5034899;28;20033;-59
2023/11/02 04:36:58;;;;;;;1.58;0.30;;;;;;;19.04;45.22;97761.25;5034941;28;20044;-59
2023/11/02 04:39:24;;;;;;;1.92;0.22;;;;;;;19.05;44.84;97760.19;5033639;28;20095;-59
2023/11/02 04:41:49;;;;;;;6.70;0.50;;;;;;;19.06;44.95;97754.50;5034416;28;20121;-59
2023/11/02 04:44:14;;;;;;;2.75;0.28;;;;;;;19.09;44.88;97770.28;5016662;28;20128;-59
2023/11/02 04:46:40;;;;;;;2.95;0.30;;;;;;;19.15;44.76;97784.72;5034165;28;20030;-59
2023/11/02 04:49:06;;;;;;;0.13;0.13;;;;;;;19.18;44.63;97801.28;5033188;28;20045;-61
2023/11/02 04:51:31;;;;;;;1.40;0.15;;;;;;;19.22;44.64;97787.19;5033437;28;20029;-61
2023/11/02 04:53:56;;;;;;;0.30;0.30;;;;;;;19.26;44.50;97753.03;5016555;28;20037;-61
2023/11/02 04:56:22;;;;;;;0.65;0.20;;;;;;;19.27;45.01;97743.78;5034341;28;20047;-61
2023/11/02 04:58:47;;;;;;;0.50;0.20;;;;;;;19.25;44.64;97725.06;5034059;28;20030;-62
2023/11/02 05:01:13;;;;;;;0.35;0.35;;;;;;;19.25;45.06;97718.81;5033218;28;20042;-62
2023/11/02 05:03:38;;;;;;;1.83;0.22;;;;;;;19.31;44.68;97721.31;5033035;28;20076;-62
2023/11/02 05:06:04;;;;;;;3.05;0.47;;;;;;;19.33;45.02;97704.75;5033059;28;20090;-61
2023/11/02 05:08:31;;;;;;;0.30;0.00;;;;;;;19.37;44.82;97684.97;5016217;28;20382;-62
2023/11/02 05:10:56;;;;;;;1.38;0.28;;;;;;;19.38;44.93;97680.34;5032814;28;20040;-61
2023/11/02 05:13:21;;;;;;;1.90;0.20;;;;;;;19.36;44.70;97707.78;5033609;28;20033;-61
2023/11/02 05:15:47;;;;;;;3.42;0.90;;;;;;;19.39;45.02;97718.13;5032495;28;20112;-62
2023/11/02 05:18:12;;;;;;;2.28;0.30;;;;;;;19.39;45.00;97706.47;5032626;28;20469;-60
2023/11/02 05:20:38;;;;;;;3.53;0.38;;;;;;;19.41;44.76;97715.16;5034102;28;20036;-61
2023/11/02 05:23:05;;;;;;;0.73;0.10;;;;;;;19.42;45.12;97724.94;5032565;28;20030;-61
2023/11/02 05:25:30;;;;;;;0.10;0.10;;;;;;;19.44;45.02;97720.06;5032815;28;20026;-61
2023/11/02 05:27:56;;;;;;;4.32;0.30;;;;;;;19.46;44.79;97721.44;5016256;28;20416;-61
2023/11/02 05:30:21;;;;;;;0.20;0.10;;;;;;;19.47;44.86;97700.53;5034039;28;20040;-61
2023/11/02 05:32:47;;;;;;;0.15;0.10;;;;;;;19.51;45.46;97685.38;5033495;28;20048;-61
2023/11/02 05:35:15;;;;;;;0.38;0.10;;;;;;;19.53;45.10;97705.75;5031517;28;20108;-61
2023/11/02 05:37:40;;;;;;;0.08;0.08;;;;;;;19.54;44.89;97682.91;5033564;28;20033;-62
2023/11/02 05:40:06;;;;;;;1.25;0.03;;;;;;;19.56;45.00;97688.91;5033118;28;20443;-61
2023/11/02 05:42:31;;;;;;;2.17;0.20;;;;;;;19.52;44.98;97684.25;5033111;28;20409;-62
2023/11/02 05:44:57;;;;;;;1.02;0.20;;;;;;;19.55;45.29;97686.44;5031836;28;20034;-61
2023/11/02 05:47:22;;;;;;;1.50;0.20;;;;;;;19.53;45.12;97686.72;5033483;28;20037;-61
2023/11/02 05:49:48;;;;;;;0.57;0.30;;;;;;;19.52;45.67;97681.53;5033165;28;20083;-61
2023/11/02 05:52:13;;;;;;;1.13;0.13;;;;;;;19.49;45.59;97692.94;5015789;28;20409;-62
2023/11/02 05:54:39;;;;;;;2.38;0.43;;;;;;;19.46;45.31;97674.44;5032975;28;20409;-61
2023/11/02 05:57:04;;;;;;;0.28;0.10;;;;;;;19.44;45.31;97669.28;5031705;28;20537;-62
2023/11/02 05:59:30;;;;;;;1.45;0.35;;;;;;;19.45;45.72;97678.25;5032133;28;20033;-59
2023/11/02 06:01:55;;;;;;;0.38;0.20;;;;;;;19.44;45.64;97650.28;5033197;28;20468;-59
2023/11/02 06:04:21;;;;;;;0.90;0.10;;;;;;;19.48;45.94;97669.59;5012739;28;20575;-59
2023/11/02 06:06:46;;;;;;;0.95;0.13;;;;;;;19.48;45.97;97658.75;5027235;28;20042;-59
2023/11/02 06:09:12;;;;;;;2.88;0.40;;;;;;;19.50;45.86;97651.97;5033065;28;20044;-59
2023/11/02 06:11:38;;;;;;;1.25;0.22;;;;;;;19.52;45.86;97641.63;5032959;28;20064;-59
2023/11/02 06:14:03;;;;;;;1.50;0.15;;;;;;;19.56;46.26;97639.22;5031654;28;20140;-59
2023/11/02 06:16:29;;;;;;;2.33;0.30;;;;;;;19.57;46.07;97640.88;5032004;28;20044;-59
2023/11/02 06:18:54;;;;;;;0.00;0.00;;;;;;;19.58;45.82;97637.06;5031978;28;20378;-59
2023/11/02 06:21:21;;;;;;;0.30;0.30;;;;;;;19.59;46.40;97631.38;5033437;28;20046;-59
2023/11/02 06:23:46;;;;;;;0.10;0.10;;;;;;;19.60;46.14;97618.59;5031763;28;20412;-59
2023/11/02 06:26:11;;;;;;;3.00;0.25;;;;;;;19.64;46.11;97614.28;5015137;28;20033;-59
2023/11/02 06:28:36;;;;;;;0.60;0.40;;;;;;;19.62;45.91;97616.44;5032727;28;20034;-59
2023/11/02 06:31:02;;;;;;;0.20;0.17;;;;;;;19.57;46.33;97594.72;5030807;28;20523;-59
2023/11/02 06:33:30;;;;;;;0.20;0.20;;;;;;;19.53;46.40;97585.44;5032539;28;20520;-58
2023/11/02 06:35:56;;;;;;;0.28;0.17;;;;;;;19.50;46.62;97594.13;5031554;28;20042;-58
2023/11/02 06:38:22;;;;;;;3.15;0.35;;;;;;;19.48;46.90;97594.41;5015151;28;20554;-59
2023/11/02 06:40:48;;;;;;;1.67;0.10;;;;;;;19.48;47.14;97588.16;5031351;28;20116;-59
2023/11/02 06:43:13;;;;;;;0.47;0.20;;;;;;;19.49;46.96;97576.19;5031596;28;20520;-59
2023/11/02 06:45:39;;;;;;;0.28;0.22;;;;;;;19.47;47.15;97586.50;5031745;28;20069;-60
2023/11/02 06:48:04;;;;;;;4.43;0.32;;;;;;;19.50;47.20;97575.13;5018567;28;20045;-60
2023/11/02 06:50:30;;;;;;;3.22;0.30;;;;;;;19.51;46.95;97557.75;5035136;28;20034;-60
2023/11/02 06:52:55;;;;;;;0.40;0.20;;;;;;;19.51;47.18;97557.75;5036530;28;20123;-59
2023/11/02 06:55:21;;;;;;;2.05;0.32;;;;;;;19.55;46.82;97553.41;5036267;28;20038;-59
2023/11/02 06:57:46;;;;;;;0.50;0.43;;;;;;;19.58;46.88;97555.59;5036370;28;20033;-59
2023/11/02 07:00:14;;;;;;;2.17;0.50;;;;;;;19.60;46.72;97546.09;5036082;28;20438;-59
2023/11/02 07:02:39;;;;;;;1.92;0.47;;;;;;;19.66;46.66;97546.91;5034834;28;20124;-59
2023/11/02 07:05:05;;;;;;;1.35;0.45;;;;;;;19.66;46.56;97546.91;5018459;28;20163;-60
2023/11/02 07:07:35;;;;;;;2.60;0.47;;;;;;;19.72;47.32;97540.41;5034578;28;20073;-59
2023/11/02 07:10:05;;;;;;;3.30;0.40;;;;;;;19.76;46.94;97552.38;5036474;28;20037;-59
2023/11/02 07:12:31;;;;;;;2.72;0.40;;;;;;;19.80;46.66;97512.72;5036144;28;20505;-59
2023/11/02 07:14:56;;;;;;;7.68;0.55;;;;;;;19.84;46.67;97532.03;5034782;28;20044;-59
2023/11/02 07:17:22;;;;;;;4.47;0.55;;;;;;;19.89;46.33;97521.16;5034875;28;20029;-59
2023/11/02 07:19:47;;;;;;;1.88;0.73;;;;;;;19.91;46.85;97506.22;5035921;28;20038;-59
2023/11/02 07:22:13;;;;;;;3.65;0.70;;;;;;;19.91;46.47;97479.06;5034761;28;20029;-59
2023/11/02 07:24:38;;;;;;;6.65;0.50;;;;;;;19.91;46.37;97492.63;5035942;28;20088;-59
2023/11/02 07:27:04;;;;;;;1.55;0.60;;;;;;;19.97;46.99;97477.16;5018112;28;20052;-59
2023/11/02 07:29:30;;;;;;;4.55;0.43;;;;;;;19.98;46.31;97490.47;5034886;28;20033;-59
2023/11/02 07:31:56;;;;;;;2.88;1.13;;;;;;;20.00;46.33;97493.72;5034837;28;20033;-59
2023/11/02 07:34:22;;;;;;;2.10;0.47;;;;;;;20.00;45.59;97499.16;5018396;28;20044;-59
2023/11/02 07:36:48;;;;;;;2.40;0.50;;;;;;;20.02;46.11;97477.97;5034883;28;20037;-59
2023/11/02 07:39:13;;;;;;;4.63;0.52;;;;;;;20.02;46.41;97499.69;5036320;28;20045;-60
2023/11/02 07:41:39;;;;;;;1.23;0.30;;;;;;;20.02;46.22;97486.13;5035781;28;20030;-60
2023/11/02 07:44:04;;;;;;;2.58;0.60;;;;;;;20.07;46.13;97475.25;5036882;28;20026;-60
2023/11/02 07:46:30;;;;;;;3.30;0.50;;;;;;;20.07;45.71;97467.09;5037531;28;20034;-60
2023/11/02 07:48:55;;;;;;;3.10;1.15;;;;;;;20.07;45.71;97461.66;5034431;28;20037;-59
2023/11/02 07:51:22;;;;;;;4.78;0.60;;;;;;;20.14;46.21;97462.22;5035789;28;20103;-59
2023/11/02 07:53:47;;;;;;;0.82;0.70;;;;;;;20.17;45.84;97460.84;5017751;28;20033;-65
2023/11/02 07:56:13;;;;;;;3.35;0.50;;;;;;;20.19;45.94;97450.50;5035650;28;20026;-59
2023/11/02 07:58:44;;;;;;;0.90;0.43;;;;;;;20.21;45.61;97459.22;5033206;28;20172;-60
2023/11/02 08:01:16;;;;;;;3.22;0.50;;;;;;;20.37;45.55;97438.28;5035436;28;20107;-59
2023/11/02 08:03:41;;;;;;;1.33;0.40;;;;;;;20.49;44.90;97426.00;5034168;28;20084;-59
2023/11/02 08:06:07;;;;;;;1.45;0.63;;;;;;;20.61;45.43;97418.38;5034397;28;20481;-59
2023/11/02 08:08:32;;;;;;;7.13;0.50;;;;;;;20.71;44.90;97428.41;5034007;28;20037;-61
2023/11/02 08:10:57;;;;;;;4.07;0.63;;;;;;;20.83;44.40;97418.00;5033821;28;20112;-59
2023/11/02 08:13:22;;;;;;;4.57;0.57;;;;;;;21.02;44.25;97418.22;5035208;28;20056;-60
2023/11/02 08:15:48;;;;;;;1.80;0.50;;;;;;;21.17;44.06;97405.38;5033852;28;20060;-59
2023/11/02 08:18:13;;;;;;;5.80;0.75;;;;;;;21.36;44.11;97405.50;5034006;28;20053;-59
2023/11/02 08:20:39;;;;;;;2.38;0.52;;;;;;;21.53;43.24;97407.84;5017357;28;20030;-59
2023/11/02 08:23:04;;;;;;;5.85;0.50;;;;;;;21.70;43.93;97408.28;5033986;28;20041;-62
2023/11/02 08:25:29;;;;;;;0.80;0.47;;;;;;;21.88;42.80;97396.72;5017013;28;20061;-61
2023/11/02 08:27:58;;;;;;;3.78;0.45;;;;;;;22.03;43.20;97419.19;5033492;28;20031;-60
2023/11/02 08:30:27;;;;;;;6.47;0.80;;;;;;;22.27;42.63;97410.25;5034586;28;20091;-60
2023/11/02 08:32:53;;;;;;;5.95;0.65;;;;;;;22.49;42.89;97419.56;5031810;28;20388;-60
2023/11/02 08:35:20;;;;;;;10.32;0.68;;;;;;;22.68;42.25;97435.22;5034456;28;20035;-59
2023/11/02 08:37:46;;;;;;;6.95;0.70;;;;;;;22.73;41.69;97413.31;5034446;28;20025;-60
2023/11/02 08:40:11;;;;;;;2.28;0.93;;;;;;;22.48;42.34;97409.75;5033200;28;20478;-60
2023/11/02 08:42:37;;;;;;;2.85;0.57;;;;;;;22.36;42.32;97417.50;5033200;28;20032;-60
2023/11/02 08:45:04;;;;;;;2.42;0.40;;;;;;;22.27;42.85;97419.25;5032967;28;20076;-60
2023/11/02 08:47:30;;;;;;;2.85;0.65;;;;;;;22.16;42.39;97401.38;5032961;28;20026;-60
2023/11/02 08:49:55;;;;;;;2.20;0.40;;;;;;;22.03;42.24;97402.84;5016435;28;20503;-59
2023/11/02 08:52:20;;;;;;;1.95;0.50;;;;;;;22.07;42.31;97416.72;5033119;28;20021;-60
2023/11/02 08:54:47;;;;;;;5.32;0.82;;;;;;;22.19;41.55;97411.72;5034250;28;20477;-59
2023/11/02 08:57:13;;;;;;;4.28;0.60;;;;;;;22.17;41.53;97408.44;5032925;28;20022;-59
2023/11/02 08:59:38;;;;;;;5.45;0.50;;;;;;;22.13;42.01;97385.59;5034053;28;20097;-59
2023/11/02 09:02:03;;;;;;;2.40;0.45;;;;;;;22.49;41.31;97384.09;5032722;28;20106;-59
2023/11/02 09:04:29;;;;;;;1.95;0.60;;;;;;;22.59;40.62;97400.34;5033767;28;20080;-60
2023/11/02 09:06:54;;;;;;;1.60;0.60;;;;;;;23.01;40.15;97406.97;5032706;28;20045;-60
2023/11/02 09:09:19;;;;;;;1.00;0.47;;;;;;;23.33;40.09;97390.69;5033766;28;20417;-60
2023/11/02 09:11:45;;;;;;;0.80;0.45;;;;;;;23.20;40.38;97405.06;5016245;28;20036;-60
2023/11/02 09:14:11;;;;;;;8.45;0.90;;;;;;;23.27;39.66;97400.06;5016081;28;20080;-59
2023/11/02 09:16:36;;;;;;;0.98;0.22;;;;;;;22.95;40.27;97408.13;5032915;28;20029;-60
2023/11/02 09:19:03;;;;;;;3.55;0.60;;;;;;;22.67;40.88;97403.59;5034032;28;20398;-59
2023/11/02 09:21:30;;;;;;;2.25;0.43;;;;;;;22.67;40.40;97398.13;5033622;28;20385;-59
2023/11/02 09:23:56;;;;;;;1.55;0.57;;;;;;;22.91;40.70;97398.91;5033718;28;20026;-61
2023/11/02 09:26:21;;;;;;;5.28;0.45;;;;;;;22.75;39.89;97386.56;5033524;28;20041;-61
2023/11/02 09:28:49;;;;;;;3.13;0.70;;;;;;;22.61;40.32;97387.22;5032566;28;20037;-62
2023/11/02 09:31:17;;;;;;;2.03;0.80;;;;;;;22.50;40.88;97407.53;5032169;28;20025;-61
2023/11/02 09:33:42;;;;;;;4.65;0.95;;;;;;;22.42;40.98;97383.63;5032263;28;20493;-61
2023/11/02 09:36:08;;;;;;;1.52;0.82;;;;;;;22.45;40.36;97406.78;5015598;28;20025;-61
2023/11/02 09:38:34;;;;;;;5.82;0.60;;;;;;;22.29;40.44;97389.78;5015524;28;20028;-61
2023/11/02 09:40:59;;;;;;;3.83;0.63;;;;;;;22.18;40.85;97398.34;5033318;28;20025;-61
2023/11/02 09:43:24;;;;;;;5.65;1.15;;;;;;;22.16;40.53;97395.09;5033496;28;20401;-61
2023/11/02 09:45:50;;;;;;;5.10;0.98;;;;;;;23.05;38.85;97397.09;5033436;28;20458;-60
2023/11/02 09:48:16;;;;;;;4.50;0.90;;;;;;;23.90;38.67;97392.25;5032016;28;20038;-61
2023/11/02 09:50:41;;;;;;;1.58;0.77;;;;;;;24.03;38.47;97380.56;5032007;28;20037;-61
2023/11/02 09:53:07;;;;;;;2.90;0.95;;;;;;;24.53;37.23;97387.06;5032184;28;20038;-61
2023/11/02 09:55:32;;;;;;;3.00;0.90;;;;;;;24.90;36.86;97367.69;5015487;28;20025;-61
2023/11/02 09:57:59;;;;;;;3.53;0.75;;;;;;;24.93;36.60;97370.97;5033247;28;20500;-61
2023/11/02 10:00:24;;;;;;;5.07;0.63;;;;;;;24.65;37.27;97365.44;5015332;28;20033;-61
2023/11/02 10:02:51;;;;;;;2.45;0.88;;;;;;;25.19;36.95;97374.75;5015117;28;20099;-61
2023/11/02 10:05:17;;;;;;;6.57;0.90;;;;;;;25.56;36.46;97358.03;5031785;28;20038;-60
2023/11/02 10:07:43;;;;;;;4.18;0.80;;;;;;;25.56;36.31;97390.94;5015361;28;20042;-61
2023/11/02 10:10:12;;;;;;;4.20;1.00;;;;;;;24.81;37.32;97375.03;5032751;28;20021;-61
2023/11/02 10:12:38;;;;;;;5.32;0.85;;;;;;;24.44;37.54;97380.66;5032749;28;20029;-61
2023/11/02 10:15:06;;;;;;;5.60;1.27;;;;;;;24.18;37.58;97369.38;5031831;28;20032;-61
2023/11/02 10:17:35;;;;;;;6.03;1.17;;;;;;;24.36;37.15;97378.63;5031501;28;20037;-60
2023/11/02 10:20:07;;;;;;;4.95;0.73;;;;;;;25.32;36.66;97352.78;5031564;28;20033;-61
2023/11/02 10:22:32;;;;;;;5.28;0.70;;;;;;;25.88;35.61;97346.78;5032623;28;20099;-61
2023/11/02 10:24:57;;;;;;;2.28;1.42;;;;;;;25.92;35.24;97356.03;5032797;28;20076;-61
2023/11/02 10:27:23;;;;;;;4.50;1.05;;;;;;;26.46;34.85;97343.91;5031100;28;20107;-61
2023/11/02 10:29:49;;;;;;;7.00;1.50;;;;;;;26.68;34.16;97356.75;5031314;28;20041;-61
2023/11/02 10:32:15;;;;;;;4.88;1.38;;;;;;;27.01;34.20;97332.44;5031363;28;20034;-61
2023/11/02 10:34:43;;;;;;;7.30;1.38;;;;;;;27.40;34.05;97332.31;5032332;28;20033;-61
2023/11/02 10:37:08;;;;;;;2.80;0.95;;;;;;;27.63;34.07;97344.81;5031475;28;20110;-61
2023/11/02 10:39:35;;;;;;;4.35;1.00;;;;;;;27.62;34.40;97367.13;5014917;28;20567;-61
2023/11/02 10:42:01;;;;;;;5.78;1.30;;;;;;;28.00;33.37;97335.03;5030871;28;20033;-61
2023/11/02 10:44:28;;;;;;;6.82;1.00;;;;;;;27.67;33.20;97353.19;5032269;28;20497;-61
2023/11/02 10:46:57;;;;;;;4.35;0.73;;;;;;;27.56;33.16;97360.16;5031069;28;20049;-61
2023/11/02 10:49:28;;;;;;;8.48;1.67;;;;;;;27.53;33.52;97347.88;5032456;28;20033;-61
2023/11/02 10:51:56;;;;;;;11.82;1.48;;;;;;;27.06;33.75;97346.84;5031060;28;20065;-61
2023/11/02 10:54:40;;;;;;;3.13;0.85;;;;;;;27.18;34.01;97329.72;5032372;28;20040;-61
2023/11/02 10:57:16;;;;;;;1.85;0.95;;;;;;;27.01;33.32;97326.94;5032226;28;20029;-61
2023/11/02 10:59:41;;;;;;;3.20;0.95;;;;;;;26.62;34.05;97336.03;5032314;28;20037;-60
2023/11/02 11:02:10;;;;;;;4.72;0.88;;;;;;;26.68;33.46;97309.25;5031012;28;20505;-60
2023/11/02 11:04:38;;;;;;;2.22;0.60;;;;;;;26.76;33.43;97324.94;5030971;28;20051;-60
2023/11/02 11:07:05;;;;;;;9.15;1.02;;;;;;;26.02;33.82;97320.09;5014626;28;20037;-60
2023/11/02 11:09:31;;;;;;;5.70;0.70;;;;;;;25.53;34.48;97341.38;5014553;28;20036;-60
2023/11/02 11:11:58;;;;;;;4.45;0.85;;;;;;;25.39;34.30;97366.06;5031261;28;20038;-60
2023/11/02 11:14:24;;;;;;;7.72;0.77;;;;;;;25.06;34.22;97359.97;5031258;28;20053;-60
2023/11/02 11:16:50;;;;;;;8.07;1.10;;;;;;;24.98;33.87;97313.34;5031054;28;20060;-61
2023/11/02 11:19:15;;;;;;;4.47;0.90;;;;;;;24.78;34.56;97337.28;5031213;28;20049;-60
2023/11/02 11:21:42;;;;;;;3.97;0.77;;;;;;;24.69;34.37;97346.50;5031363;28;20113;-61
2023/11/02 11:24:17;;;;;;;3.30;0.90;;;;;;;24.84;34.44;97344.31;5030662;28;20060;-61
2023/11/02 11:26:50;;;;;;;5.15;1.10;;;;;;;25.15;34.05;97330.75;5012260;28;20100;-60
2023/11/02 11:29:32;;;;;;;2.25;0.85;;;;;;;25.37;34.07;97317.06;5011331;28;20041;-61
2023/11/02 11:31:58;;;;;;;6.00;0.60;;;;;;;24.95;34.07;97303.81;5015414;28;20034;-60
2023/11/02 11:34:23;;;;;;;4.63;1.20;;;;;;;24.97;33.79;97325.41;5028576;28;20040;-60
2023/11/02 11:36:49;;;;;;;2.65;1.20;;;;;;;24.95;33.78;97313.94;5048159;28;20037;-60
2023/11/02 11:39:32;;;;;;;11.55;0.70;;;;;;;25.28;33.98;97321.66;5018203;28;20025;-60
2023/11/02 11:41:58;;;;;;;50.38;5.40;;;;;;;25.60;34.00;97315.16;5035623;28;20116;-60